Time;durP1;ratioP1;P1;durP2;ratioP2;P2;SDS_P1;SDS_P2;PMS_P1;PMS_P2;Temp;Humidity;BMP_temperature;BMP_pressure;BME280_temperature;BME280_humidity;BME280_pressure;Samples;Min_cycle;Max_cycle;Signal;HPM_P1;HPM_P2
2022/04/27 00:01:42;;;;;;;13.15;5.15;;;;;;;;;;5079135;28;20027;-70
2022/04/27 00:04:07;;;;;;;11.15;4.45;;;;;;;;;;5081003;28;20390;-70
2022/04/27 00:06:32;;;;;;;17.30;6.38;;;;;;;;;;5082263;28;20024;-68
2022/04/27 00:08:58;;;;;;;17.27;6.72;;;;;;;;;;5079630;28;20106;-70
2022/04/27 00:11:23;;;;;;;25.50;8.25;;;;;;;;;;5080710;28;20032;-73
2022/04/27 00:13:48;;;;;;;48.67;13.75;;;;;;;;;;5080652;28;20036;-70
2022/04/27 00:16:14;;;;;;;22.48;7.25;;;;;;;;;;5081072;28;20112;-70
2022/04/27 00:18:40;;;;;;;25.95;7.78;;;;;;;;;;5081291;28;20446;-74
2022/04/27 00:21:05;;;;;;;19.02;6.72;;;;;;;;;;5070824;28;20434;-72
2022/04/27 00:23:32;;;;;;;9.70;4.47;;;;;;;;;;5080291;28;20107;-71
2022/04/27 00:25:58;;;;;;;12.02;5.10;;;;;;;;;;5063407;28;20449;-70
2022/04/27 00:28:23;;;;;;;6.93;2.72;;;;;;;;;;5081589;28;20095;-72
2022/04/27 00:30:49;;;;;;;5.22;2.60;;;;;;;;;;5080746;28;20363;-71
2022/04/27 00:33:15;;;;;;;7.82;2.40;;;;;;;;;;5081603;28;20028;-70
2022/04/27 00:35:40;;;;;;;10.80;3.05;;;;;;;;;;5080838;28;20435;-69
2022/04/27 00:38:06;;;;;;;6.03;3.50;;;;;;;;;;5080537;28;20020;-70
2022/04/27 00:40:31;;;;;;;9.05;4.53;;;;;;;;;;5074717;28;20061;-69
2022/04/27 00:42:56;;;;;;;8.95;4.13;;;;;;;;;;5075798;28;20012;-73
2022/04/27 00:45:22;;;;;;;10.68;4.68;;;;;;;;;;5081821;28;20021;-71
2022/04/27 00:47:47;;;;;;;6.13;3.92;;;;;;;;;;5080973;28;20082;-75
2022/04/27 00:50:13;;;;;;;7.18;3.00;;;;;;;;;;5080559;28;20020;-72
2022/04/27 00:52:38;;;;;;;9.05;4.57;;;;;;;;;;5080132;28;20039;-69
2022/04/27 00:55:04;;;;;;;11.15;5.80;;;;;;;;;;5079311;28;20042;-73
2022/04/27 00:57:30;;;;;;;9.18;4.95;;;;;;;;;;5083780;28;20024;-69
2022/04/27 00:59:55;;;;;;;11.40;5.18;;;;;;;;;;5082255;28;20023;-70
2022/04/27 01:02:21;;;;;;;10.98;4.57;;;;;;;;;;5076518;28;20063;-69
2022/04/27 01:04:46;;;;;;;8.98;4.82;;;;;;;;;;5084898;28;20085;-69
2022/04/27 01:07:12;;;;;;;13.38;4.85;;;;;;;;;;5066843;28;20016;-71
2022/04/27 01:09:37;;;;;;;8.98;5.35;;;;;;;;;;5084003;28;20046;-70
2022/04/27 01:12:04;;;;;;;8.75;4.40;;;;;;;;;;5083834;28;20028;-71
2022/04/27 01:14:39;;;;;;;7.47;4.80;;;;;;;;;;5077340;28;20867;-68
2022/04/27 01:17:05;;;;;;;7.03;4.10;;;;;;;;;;5070997;28;20019;-71
2022/04/27 01:19:31;;;;;;;5.53;2.53;;;;;;;;;;5073684;28;20020;-70
2022/04/27 01:21:56;;;;;;;8.30;2.00;;;;;;;;;;5084977;28;20055;-69
2022/04/27 01:24:24;;;;;;;7.43;4.05;;;;;;;;;;5079575;28;20103;-69
2022/04/27 01:26:49;;;;;;;8.07;4.63;;;;;;;;;;5076121;28;20099;-70
2022/04/27 01:29:15;;;;;;;11.57;5.03;;;;;;;;;;5084284;28;20119;-72
2022/04/27 01:31:41;;;;;;;11.43;5.05;;;;;;;;;;5083397;28;20015;-74
2022/04/27 01:34:06;;;;;;;6.65;3.70;;;;;;;;;;5083801;28;20038;-69
2022/04/27 01:36:31;;;;;;;6.72;2.40;;;;;;;;;;5083750;28;20020;-71
2022/04/27 01:38:57;;;;;;;5.15;2.97;;;;;;;;;;5084454;28;20385;-70
2022/04/27 01:41:22;;;;;;;5.35;2.63;;;;;;;;;;5080241;28;20054;-70
2022/04/27 01:43:47;;;;;;;4.68;2.40;;;;;;;;;;5076571;28;20052;-71
2022/04/27 01:46:13;;;;;;;3.65;2.45;;;;;;;;;;5082978;28;20052;-72
2022/04/27 01:48:39;;;;;;;4.22;2.50;;;;;;;;;;5084650;28;20457;-70
2022/04/27 01:51:04;;;;;;;3.75;2.35;;;;;;;;;;5084413;28;20020;-70
2022/04/27 01:56:15;;;;;;;3.40;2.10;;;;;;;;;;5083283;28;20039;-69
2022/04/27 01:58:41;;;;;;;3.58;2.60;;;;;;;;;;5083238;28;20051;-69
2022/04/27 02:01:10;;;;;;;3.65;2.35;;;;;;;;;;5081731;28;20039;-69
2022/04/27 02:03:36;;;;;;;2.60;2.40;;;;;;;;;;5071648;28;20023;-72
2022/04/27 02:06:01;;;;;;;3.15;2.72;;;;;;;;;;5083266;28;20461;-69
2022/04/27 02:08:27;;;;;;;6.30;2.08;;;;;;;;;;5081647;28;20032;-74
2022/04/27 02:10:52;;;;;;;3.25;2.00;;;;;;;;;;5082592;28;20020;-69
2022/04/27 02:13:17;;;;;;;2.45;2.00;;;;;;;;;;5083277;28;20024;-74
2022/04/27 02:15:43;;;;;;;3.20;2.90;;;;;;;;;;5083154;28;20024;-68
2022/04/27 02:18:08;;;;;;;3.28;2.60;;;;;;;;;;5083622;28;20035;-70
2022/04/27 02:20:34;;;;;;;6.03;2.55;;;;;;;;;;5081690;28;20111;-74
2022/04/27 02:22:59;;;;;;;5.88;2.90;;;;;;;;;;5081915;28;20023;-69
2022/04/27 02:25:25;;;;;;;4.35;2.70;;;;;;;;;;5076016;28;20034;-68
2022/04/27 02:27:50;;;;;;;4.60;2.47;;;;;;;;;;5078928;28;20024;-72
2022/04/27 02:30:16;;;;;;;4.00;2.50;;;;;;;;;;5083340;28;20107;-69
2022/04/27 02:32:42;;;;;;;3.60;2.40;;;;;;;;;;5083074;28;20046;-73
2022/04/27 02:35:08;;;;;;;5.38;2.03;;;;;;;;;;5082904;28;20036;-69
2022/04/27 02:37:34;;;;;;;3.80;2.85;;;;;;;;;;5082793;28;20421;-69
2022/04/27 02:39:59;;;;;;;3.35;2.28;;;;;;;;;;5083832;28;20100;-70
2022/04/27 02:42:25;;;;;;;5.53;2.55;;;;;;;;;;5083222;28;20038;-69
2022/04/27 02:44:51;;;;;;;2.95;2.40;;;;;;;;;;5080805;28;20023;-71
2022/04/27 02:47:18;;;;;;;3.22;2.45;;;;;;;;;;5074910;28;20035;-71
2022/04/27 02:52:27;;;;;;;5.78;3.20;;;;;;;;;;5081941;28;20101;-69
2022/04/27 02:54:52;;;;;;;6.15;3.40;;;;;;;;;;5082334;28;20032;-70
2022/04/27 02:57:18;;;;;;;5.07;3.10;;;;;;;;;;5081418;28;20359;-73
2022/04/27 02:59:43;;;;;;;6.55;3.60;;;;;;;;;;5082140;28;20035;-69
2022/04/27 03:02:09;;;;;;;8.13;3.55;;;;;;;;;;5082355;28;20027;-72
2022/04/27 03:04:34;;;;;;;6.45;3.30;;;;;;;;;;5081413;28;20459;-69
2022/04/27 03:06:59;;;;;;;6.32;3.33;;;;;;;;;;5082841;28;20123;-68
2022/04/27 03:09:25;;;;;;;2.92;2.30;;;;;;;;;;5082091;28;20042;-71
2022/04/27 03:11:50;;;;;;;3.47;3.03;;;;;;;;;;5081629;28;20367;-68
2022/04/27 03:14:15;;;;;;;4.63;2.60;;;;;;;;;;5082258;28;20035;-68
2022/04/27 03:16:41;;;;;;;4.43;2.85;;;;;;;;;;5082741;28;20332;-68
2022/04/27 03:19:06;;;;;;;3.85;2.45;;;;;;;;;;5081388;28;20024;-70
2022/04/27 03:21:32;;;;;;;4.05;2.58;;;;;;;;;;5082847;28;20027;-71
2022/04/27 03:23:58;;;;;;;4.03;2.70;;;;;;;;;;5081473;28;20334;-73
2022/04/27 03:26:23;;;;;;;4.10;2.92;;;;;;;;;;5079264;28;20031;-73
2022/04/27 03:28:49;;;;;;;4.75;2.92;;;;;;;;;;5074988;28;20039;-73
2022/04/27 03:31:14;;;;;;;4.80;3.10;;;;;;;;;;5082227;28;20085;-68
2022/04/27 03:33:39;;;;;;;5.53;3.58;;;;;;;;;;5082072;28;20599;-68
2022/04/27 03:36:06;;;;;;;4.03;3.30;;;;;;;;;;5081989;28;20419;-69
2022/04/27 03:38:31;;;;;;;7.50;3.60;;;;;;;;;;5082065;28;20034;-69
2022/04/27 03:40:57;;;;;;;5.07;2.90;;;;;;;;;;5080369;28;20362;-71
2022/04/27 03:43:22;;;;;;;3.53;2.65;;;;;;;;;;5081141;28;20036;-69
2022/04/27 03:45:48;;;;;;;3.30;2.60;;;;;;;;;;5080882;28;21260;-72
2022/04/27 03:48:13;;;;;;;3.60;2.78;;;;;;;;;;5081245;28;20339;-69
2022/04/27 03:50:39;;;;;;;4.65;3.05;;;;;;;;;;5075701;28;20039;-68
2022/04/27 03:53:04;;;;;;;4.70;3.00;;;;;;;;;;5076509;28;21153;-68
2022/04/27 03:55:33;;;;;;;5.25;2.55;;;;;;;;;;5080634;28;20036;-71
2022/04/27 03:57:58;;;;;;;8.23;3.65;;;;;;;;;;5081669;28;20024;-69
2022/04/27 04:00:24;;;;;;;8.27;7.05;;;;;;;;;;5081277;28;20038;-69
2022/04/27 04:02:49;;;;;;;7.88;5.75;;;;;;;;;;5081019;28;20028;-68
2022/04/27 04:05:14;;;;;;;7.65;5.57;;;;;;;;;;5080493;28;20113;-69
2022/04/27 04:07:40;;;;;;;6.35;4.25;;;;;;;;;;5081507;28;20019;-69
2022/04/27 04:10:06;;;;;;;6.10;4.20;;;;;;;;;;5080252;28;20020;-73
2022/04/27 04:12:31;;;;;;;5.90;4.22;;;;;;;;;;5068850;28;20425;-71
2022/04/27 04:14:56;;;;;;;6.15;4.35;;;;;;;;;;5050641;28;20036;-70
2022/04/27 04:17:22;;;;;;;5.38;3.40;;;;;;;;;;5068194;28;20052;-73
2022/04/27 04:19:47;;;;;;;4.70;3.47;;;;;;;;;;5047727;28;20043;-70
2022/04/27 04:22:13;;;;;;;4.13;3.10;;;;;;;;;;5067280;28;20039;-69
2022/04/27 04:24:39;;;;;;;4.45;3.28;;;;;;;;;;5066801;28;20053;-69
2022/04/27 04:29:48;;;;;;;7.35;4.10;;;;;;;;;;5067188;28;20031;-69
2022/04/27 04:32:13;;;;;;;7.32;3.75;;;;;;;;;;5070782;28;20040;-68
2022/04/27 04:34:39;;;;;;;8.98;4.30;;;;;;;;;;5070385;28;20035;-74
2022/04/27 04:37:04;;;;;;;6.93;4.10;;;;;;;;;;5080291;28;20106;-71
2022/04/27 04:39:29;;;;;;;6.38;4.65;;;;;;;;;;5081715;28;20044;-71
2022/04/27 04:41:55;;;;;;;6.90;3.97;;;;;;;;;;5063815;28;20023;-70
2022/04/27 04:44:20;;;;;;;8.18;5.55;;;;;;;;;;5081866;28;20454;-71
2022/04/27 04:46:45;;;;;;;4.95;4.45;;;;;;;;;;5081797;28;20504;-71
2022/04/27 04:49:11;;;;;;;8.93;4.35;;;;;;;;;;5082100;28;20035;-72
2022/04/27 04:51:36;;;;;;;7.22;4.45;;;;;;;;;;5082660;28;20024;-71
2022/04/27 04:54:02;;;;;;;6.85;4.50;;;;;;;;;;5082826;28;20036;-69
2022/04/27 04:56:27;;;;;;;8.93;5.25;;;;;;;;;;5082396;28;20032;-70
2022/04/27 04:58:52;;;;;;;7.10;5.15;;;;;;;;;;5081247;28;20036;-70
2022/04/27 05:01:18;;;;;;;6.82;5.03;;;;;;;;;;5082521;28;20082;-75
2022/04/27 05:03:43;;;;;;;13.02;6.25;;;;;;;;;;5082416;28;20059;-72
2022/04/27 05:06:08;;;;;;;7.22;6.03;;;;;;;;;;5080989;28;20426;-71
2022/04/27 05:08:34;;;;;;;10.02;6.68;;;;;;;;;;5080564;28;20023;-75
2022/04/27 05:10:59;;;;;;;8.93;5.93;;;;;;;;;;5079435;28;20570;-74
2022/04/27 05:13:24;;;;;;;5.78;4.53;;;;;;;;;;5081021;28;20034;-70
2022/04/27 05:15:50;;;;;;;7.38;5.35;;;;;;;;;;5081730;28;20020;-76
2022/04/27 05:18:17;;;;;;;5.72;5.10;;;;;;;;;;5081319;28;20404;-69
2022/04/27 05:20:43;;;;;;;6.90;4.85;;;;;;;;;;5082227;28;20051;-69
2022/04/27 05:23:08;;;;;;;7.15;4.82;;;;;;;;;;5082489;28;20121;-76
2022/04/27 05:25:34;;;;;;;9.80;4.18;;;;;;;;;;5082298;28;20055;-70
2022/04/27 05:28:02;;;;;;;8.88;5.18;;;;;;;;;;5082387;28;20024;-70
2022/04/27 05:33:12;;;;;;;18.85;12.02;;;;;;;;;;5080845;28;20031;-71
2022/04/27 05:35:41;;;;;;;11.90;8.27;;;;;;;;;;5082151;28;20029;-76
2022/04/27 05:38:06;;;;;;;17.07;11.00;;;;;;;;;;5081531;28;20024;-69
2022/04/27 05:40:31;;;;;;;8.98;7.32;;;;;;;;;;5081355;28;20366;-74
2022/04/27 05:42:57;;;;;;;9.27;5.53;;;;;;;;;;5084158;28;20081;-75
2022/04/27 05:45:23;;;;;;;6.13;4.28;;;;;;;;;;5084627;28;20029;-73
2022/04/27 05:47:49;;;;;;;6.85;4.22;;;;;;;;;;5085007;28;20462;-75
2022/04/27 05:50:14;;;;;;;3.95;3.65;;;;;;;;;;5084713;28;20032;-72
2022/04/27 05:52:49;;;;;;;7.30;4.70;;;;;;;;;;5085484;28;20023;-69
2022/04/27 05:55:15;;;;;;;4.90;3.90;;;;;;;;;;5085183;28;20039;-70
2022/04/27 05:57:40;;;;;;;3.97;3.00;;;;;;;;;;5085488;28;20036;-74
2022/04/27 06:00:06;;;;;;;5.88;3.30;;;;;;;;;;5084199;28;20035;-73
2022/04/27 06:02:31;;;;;;;4.03;3.20;;;;;;;;;;5085144;28;20338;-70
2022/04/27 06:04:57;;;;;;;5.00;2.58;;;;;;;;;;5085235;28;20459;-72
2022/04/27 06:07:22;;;;;;;5.38;2.80;;;;;;;;;;5084649;28;20110;-69
2022/04/27 06:09:47;;;;;;;5.43;2.55;;;;;;;;;;5084820;28;20127;-75
2022/04/27 06:12:12;;;;;;;4.28;2.17;;;;;;;;;;5085714;28;20020;-70
2022/04/27 06:14:38;;;;;;;6.68;2.33;;;;;;;;;;5084101;28;20040;-73
2022/04/27 06:17:04;;;;;;;4.13;2.92;;;;;;;;;;5084721;28;20020;-75
2022/04/27 06:19:29;;;;;;;4.13;2.38;;;;;;;;;;5085401;28;20024;-71
2022/04/27 06:21:54;;;;;;;4.40;2.47;;;;;;;;;;5084632;28;20024;-70
2022/04/27 06:24:20;;;;;;;4.85;2.25;;;;;;;;;;5084679;28;20054;-77
2022/04/27 06:26:45;;;;;;;6.65;2.63;;;;;;;;;;5083351;28;20402;-73
2022/04/27 06:29:10;;;;;;;4.80;2.10;;;;;;;;;;5085306;28;20157;-71
2022/04/27 06:31:36;;;;;;;3.78;2.20;;;;;;;;;;5083771;28;20028;-69
2022/04/27 06:34:01;;;;;;;4.03;2.10;;;;;;;;;;5066148;28;20036;-70
2022/04/27 06:36:26;;;;;;;2.80;1.83;;;;;;;;;;5083576;28;20036;-69
2022/04/27 06:38:52;;;;;;;5.13;1.95;;;;;;;;;;5084874;28;20343;-69
2022/04/27 06:41:17;;;;;;;4.07;2.17;;;;;;;;;;5083647;28;20036;-70
2022/04/27 06:43:42;;;;;;;4.45;1.90;;;;;;;;;;5082400;28;20119;-72
2022/04/27 06:46:08;;;;;;;3.28;2.10;;;;;;;;;;5083471;28;20414;-69
2022/04/27 06:48:33;;;;;;;3.90;1.80;;;;;;;;;;5082441;28;20035;-68
2022/04/27 06:50:58;;;;;;;3.65;2.08;;;;;;;;;;5084173;28;20020;-72
2022/04/27 06:53:24;;;;;;;3.60;1.80;;;;;;;;;;5084058;28;20036;-70
2022/04/27 06:55:50;;;;;;;3.80;2.00;;;;;;;;;;5082799;28;20024;-72
2022/04/27 06:58:15;;;;;;;2.40;1.85;;;;;;;;;;5083250;28;20028;-75
2022/04/27 07:00:41;;;;;;;2.17;1.75;;;;;;;;;;5084068;28;20379;-71
2022/04/27 07:03:06;;;;;;;2.33;1.95;;;;;;;;;;5082463;28;20047;-70
2022/04/27 07:05:31;;;;;;;3.50;2.05;;;;;;;;;;5065437;28;20048;-71
2022/04/27 07:07:58;;;;;;;8.48;4.30;;;;;;;;;;5083413;28;20340;-71
2022/04/27 07:10:23;;;;;;;3.92;2.30;;;;;;;;;;5082842;28;20027;-71
2022/04/27 07:12:49;;;;;;;3.35;1.85;;;;;;;;;;5083494;28;20028;-77
2022/04/27 07:15:14;;;;;;;3.75;2.30;;;;;;;;;;5082223;28;20425;-72
2022/04/27 07:17:40;;;;;;;3.45;1.75;;;;;;;;;;5083240;28;20032;-72
2022/04/27 07:20:05;;;;;;;4.35;1.85;;;;;;;;;;5083762;28;20016;-70
2022/04/27 07:22:31;;;;;;;3.60;2.05;;;;;;;;;;5082048;28;20036;-73
2022/04/27 07:24:56;;;;;;;3.05;1.90;;;;;;;;;;5082014;28;20046;-71
2022/04/27 07:27:21;;;;;;;2.92;1.88;;;;;;;;;;5083123;28;20044;-71
2022/04/27 07:29:47;;;;;;;3.17;2.05;;;;;;;;;;5083802;28;20039;-71
2022/04/27 07:32:12;;;;;;;2.88;1.83;;;;;;;;;;5082786;28;20086;-71
2022/04/27 07:34:38;;;;;;;5.90;2.30;;;;;;;;;;5083018;28;20035;-70
2022/04/27 07:37:05;;;;;;;4.25;2.20;;;;;;;;;;5083191;28;20107;-72
2022/04/27 07:39:31;;;;;;;5.85;2.20;;;;;;;;;;5082726;28;20438;-71
2022/04/27 07:41:56;;;;;;;3.72;1.70;;;;;;;;;;5083496;28;20077;-75
2022/04/27 07:44:21;;;;;;;1.77;1.67;;;;;;;;;;5082599;28;20469;-71
2022/04/27 07:46:50;;;;;;;2.15;1.83;;;;;;;;;;5083099;28;20027;-70
2022/04/27 07:49:16;;;;;;;3.15;1.80;;;;;;;;;;5082995;28;20032;-70
2022/04/27 07:51:41;;;;;;;4.03;2.00;;;;;;;;;;5082913;28;20032;-71
2022/04/27 07:54:06;;;;;;;4.63;1.83;;;;;;;;;;5083112;28;20032;-77
2022/04/27 07:56:31;;;;;;;3.90;1.70;;;;;;;;;;5083072;28;20032;-73
2022/04/27 07:58:57;;;;;;;3.78;1.73;;;;;;;;;;5080499;28;20040;-72
2022/04/27 08:01:22;;;;;;;3.13;1.92;;;;;;;;;;5082060;28;20056;-74
2022/04/27 08:03:48;;;;;;;5.70;1.92;;;;;;;;;;5082444;28;20031;-70
2022/04/27 08:06:14;;;;;;;2.72;1.65;;;;;;;;;;5082484;28;20293;-71
2022/04/27 08:08:39;;;;;;;4.90;2.00;;;;;;;;;;5082268;28;20123;-72
2022/04/27 08:11:04;;;;;;;4.45;2.13;;;;;;;;;;5082428;28;20748;-70
2022/04/27 08:13:31;;;;;;;3.83;1.83;;;;;;;;;;5081053;28;20020;-70
2022/04/27 08:15:56;;;;;;;3.70;1.63;;;;;;;;;;5081326;28;20126;-79
2022/04/27 08:18:22;;;;;;;3.05;1.63;;;;;;;;;;5081656;28;20526;-75
2022/04/27 08:23:34;;;;;;;4.07;2.05;;;;;;;;;;5081786;28;20038;-71
2022/04/27 08:26:03;;;;;;;4.85;1.98;;;;;;;;;;5081564;28;20035;-73
2022/04/27 08:28:29;;;;;;;3.65;1.70;;;;;;;;;;5080864;28;20039;-70
2022/04/27 08:30:55;;;;;;;4.38;2.08;;;;;;;;;;5081681;28;20020;-70
2022/04/27 08:33:20;;;;;;;3.38;1.90;;;;;;;;;;5082175;28;20063;-70
2022/04/27 08:35:46;;;;;;;3.60;1.75;;;;;;;;;;5081164;28;20024;-70
2022/04/27 08:38:12;;;;;;;1.63;1.45;;;;;;;;;;5081615;28;20107;-74
2022/04/27 08:40:40;;;;;;;3.88;1.50;;;;;;;;;;5081125;28;20115;-75
2022/04/27 08:43:05;;;;;;;3.03;1.50;;;;;;;;;;5081437;28;20116;-69
2022/04/27 08:45:32;;;;;;;2.83;1.45;;;;;;;;;;5082191;28;20056;-70
2022/04/27 08:47:57;;;;;;;3.22;1.30;;;;;;;;;;5081336;28;20415;-74
2022/04/27 08:50:24;;;;;;;3.03;1.30;;;;;;;;;;5081952;28;20028;-72
2022/04/27 08:52:50;;;;;;;3.38;1.63;;;;;;;;;;5081776;28;20064;-69
2022/04/27 08:55:15;;;;;;;3.17;1.50;;;;;;;;;;5080017;28;20063;-69
2022/04/27 08:57:41;;;;;;;2.15;1.55;;;;;;;;;;5081095;28;20089;-70
2022/04/27 09:00:07;;;;;;;3.50;1.50;;;;;;;;;;5064063;28;20016;-71
2022/04/27 09:02:33;;;;;;;5.47;1.60;;;;;;;;;;5080731;28;20028;-74
2022/04/27 09:05:15;;;;;;;2.90;1.25;;;;;;;;;;5080277;28;20040;-76
2022/04/27 09:07:43;;;;;;;2.90;1.38;;;;;;;;;;5081236;28;20064;-75
2022/04/27 09:10:10;;;;;;;2.40;1.45;;;;;;;;;;5081828;28;20027;-70
2022/04/27 09:12:38;;;;;;;2.55;1.70;;;;;;;;;;5081466;28;20118;-75
2022/04/27 09:15:05;;;;;;;5.25;1.65;;;;;;;;;;5063748;28;20725;-70
2022/04/27 09:22:59;;;;;;;4.82;1.60;;;;;;;;;;5083891;28;20038;-74
2022/04/27 09:25:31;;;;;;;2.53;1.23;;;;;;;;;;5085126;28;20028;-73
2022/04/27 09:27:59;;;;;;;2.13;1.20;;;;;;;;;;5084650;28;20035;-71
2022/04/27 09:30:27;;;;;;;4.25;1.40;;;;;;;;;;5084504;28;20028;-75
2022/04/27 09:32:53;;;;;;;5.45;1.48;;;;;;;;;;5084865;28;20031;-71
2022/04/27 09:35:34;;;;;;;2.60;1.17;;;;;;;;;;5083534;28;20044;-71
2022/04/27 09:38:16;;;;;;;4.32;1.35;;;;;;;;;;5084312;28;20027;-71
2022/04/27 09:40:42;;;;;;;4.57;1.58;;;;;;;;;;5083342;28;20058;-75
2022/04/27 09:43:09;;;;;;;2.60;1.45;;;;;;;;;;5085247;28;20552;-71
2022/04/27 09:45:34;;;;;;;3.20;1.40;;;;;;;;;;5084672;28;20024;-71
2022/04/27 09:48:03;;;;;;;1.92;1.20;;;;;;;;;;5085314;28;20134;-70
2022/04/27 09:50:49;;;;;;;2.85;1.27;;;;;;;;;;5083959;28;20112;-72
2022/04/27 09:53:15;;;;;;;6.18;1.50;;;;;;;;;;5083002;28;20082;-76
2022/04/27 09:55:48;;;;;;;3.90;1.70;;;;;;;;;;5083488;28;20028;-74
2022/04/27 09:58:14;;;;;;;4.50;1.45;;;;;;;;;;5083190;28;20043;-73
2022/04/27 10:00:44;;;;;;;2.33;1.30;;;;;;;;;;5084649;28;20046;-72
2022/04/27 10:03:16;;;;;;;2.63;1.30;;;;;;;;;;5084218;28;20024;-70
2022/04/27 10:05:42;;;;;;;7.55;1.40;;;;;;;;;;5083371;28;20052;-71
2022/04/27 10:08:08;;;;;;;2.38;1.23;;;;;;;;;;5084457;28;20039;-70
2022/04/27 10:10:35;;;;;;;2.25;1.58;;;;;;;;;;5084252;28;20039;-72
2022/04/27 10:13:01;;;;;;;1.75;1.35;;;;;;;;;;5083024;28;20024;-71
2022/04/27 10:15:27;;;;;;;1.80;1.10;;;;;;;;;;5083989;28;20054;-71
2022/04/27 10:17:53;;;;;;;3.78;1.13;;;;;;;;;;5083142;28;20019;-76
2022/04/27 10:20:45;;;;;;;3.47;1.20;;;;;;;;;;5084317;28;20031;-72
2022/04/27 10:23:19;;;;;;;1.10;1.00;;;;;;;;;;5082235;28;20080;-71
2022/04/27 10:26:14;;;;;;;2.55;1.35;;;;;;;;;;5083497;28;20047;-75
2022/04/27 10:28:42;;;;;;;1.55;0.95;;;;;;;;;;5074240;28;20092;-77
2022/04/27 10:31:08;;;;;;;2.78;1.38;;;;;;;;;;5084343;28;20016;-73
2022/04/27 10:33:39;;;;;;;1.95;1.20;;;;;;;;;;5083999;28;20088;-74
2022/04/27 10:36:36;;;;;;;4.03;1.27;;;;;;;;;;5083506;28;20300;-72
2022/04/27 10:39:14;;;;;;;2.97;1.23;;;;;;;;;;5084086;28;20336;-75
2022/04/27 10:41:40;;;;;;;2.43;1.07;;;;;;;;;;5084097;28;20028;-74
2022/04/27 10:44:06;;;;;;;3.85;1.10;;;;;;;;;;5084112;28;20259;-71
2022/04/27 10:46:38;;;;;;;1.60;1.25;;;;;;;;;;5083912;28;20024;-71
2022/04/27 10:49:22;;;;;;;4.93;1.33;;;;;;;;;;5083711;28;20031;-75
2022/04/27 10:52:02;;;;;;;2.28;1.35;;;;;;;;;;5084154;28;20521;-75
2022/04/27 10:54:29;;;;;;;1.75;1.15;;;;;;;;;;5082729;28;20165;-76
2022/04/27 10:56:55;;;;;;;2.15;1.10;;;;;;;;;;5083533;28;20077;-72
2022/04/27 10:59:39;;;;;;;4.10;1.42;;;;;;;;;;5083884;28;20031;-76
2022/04/27 11:02:05;;;;;;;4.97;1.50;;;;;;;;;;5083335;28;20446;-75
2022/04/27 11:04:33;;;;;;;3.05;1.38;;;;;;;;;;5082307;28;20044;-72
2022/04/27 11:07:18;;;;;;;3.58;1.50;;;;;;;;;;5081167;28;20023;-73
2022/04/27 11:09:59;;;;;;;3.08;1.30;;;;;;;;;;5082442;28;20028;-71
2022/04/27 11:12:25;;;;;;;3.35;1.25;;;;;;;;;;5082490;28;20088;-75
2022/04/27 11:14:57;;;;;;;5.20;1.10;;;;;;;;;;5082976;28;20390;-71
2022/04/27 11:17:29;;;;;;;2.50;1.08;;;;;;;;;;5083253;28;20028;-72
2022/04/27 11:19:54;;;;;;;2.10;1.30;;;;;;;;;;5082373;28;20032;-71
2022/04/27 11:22:20;;;;;;;4.03;1.50;;;;;;;;;;5083077;28;20039;-77
2022/04/27 11:24:49;;;;;;;1.70;1.10;;;;;;;;;;5083247;28;20043;-77
2022/04/27 11:27:23;;;;;;;2.45;1.35;;;;;;;;;;5083173;28;20056;-72
2022/04/27 11:29:51;;;;;;;5.72;1.85;;;;;;;;;;5082961;28;20047;-72
2022/04/27 11:32:16;;;;;;;2.97;1.40;;;;;;;;;;5082200;28;20046;-73
2022/04/27 11:34:46;;;;;;;8.05;1.67;;;;;;;;;;5082852;28;20032;-73
2022/04/27 11:37:15;;;;;;;3.05;1.50;;;;;;;;;;5082147;28;20016;-71
2022/04/27 11:39:41;;;;;;;2.58;1.30;;;;;;;;;;5082223;28;20028;-72
2022/04/27 11:42:06;;;;;;;2.05;1.23;;;;;;;;;;5083044;28;20015;-72
2022/04/27 11:44:32;;;;;;;5.18;1.63;;;;;;;;;;5082838;28;20449;-73
2022/04/27 11:46:58;;;;;;;1.98;1.10;;;;;;;;;;5083296;28;20020;-73
2022/04/27 11:49:24;;;;;;;1.60;1.00;;;;;;;;;;5082530;28;21484;-72
2022/04/27 11:51:49;;;;;;;3.53;1.40;;;;;;;;;;5083237;28;20024;-73
2022/04/27 11:54:25;;;;;;;2.05;1.40;;;;;;;;;;5082019;28;20047;-74
2022/04/27 11:57:00;;;;;;;1.85;1.33;;;;;;;;;;5081336;28;20415;-73
2022/04/27 11:59:25;;;;;;;2.70;1.00;;;;;;;;;;5080363;28;20027;-73
2022/04/27 12:01:54;;;;;;;1.15;1.00;;;;;;;;;;5082845;28;20390;-71
2022/04/27 12:04:19;;;;;;;2.47;1.40;;;;;;;;;;5080346;28;20060;-72
2022/04/27 12:06:45;;;;;;;1.95;1.30;;;;;;;;;;5083028;28;20032;-71
2022/04/27 12:09:19;;;;;;;1.80;1.20;;;;;;;;;;5082645;28;20034;-74
2022/04/27 12:11:44;;;;;;;3.55;1.25;;;;;;;;;;5082750;28;20024;-74
2022/04/27 12:14:10;;;;;;;1.73;1.10;;;;;;;;;;5082599;28;20044;-81
2022/04/27 12:16:39;;;;;;;2.58;1.20;;;;;;;;;;5080901;28;20105;-73
2022/04/27 12:19:06;;;;;;;1.35;1.00;;;;;;;;;;5082429;28;20710;-71
2022/04/27 12:21:32;;;;;;;2.42;1.33;;;;;;;;;;5082140;28;20051;-71
2022/04/27 12:23:57;;;;;;;2.38;1.10;;;;;;;;;;5082253;28;20047;-75
2022/04/27 12:26:24;;;;;;;4.85;1.50;;;;;;;;;;5081908;28;20020;-71
2022/04/27 12:28:50;;;;;;;3.63;1.33;;;;;;;;;;5081818;28;20059;-76
2022/04/27 12:31:16;;;;;;;2.33;1.20;;;;;;;;;;5082256;28;20498;-73
2022/04/27 12:33:48;;;;;;;2.50;1.50;;;;;;;;;;5081033;28;20020;-72
2022/04/27 12:39:20;;;;;;;3.92;1.40;;;;;;;;;;5081695;28;20035;-71
2022/04/27 12:41:47;;;;;;;1.30;1.20;;;;;;;;;;5081408;28;20023;-72
2022/04/27 12:44:19;;;;;;;2.88;1.30;;;;;;;;;;5082604;28;20028;-72
2022/04/27 12:46:58;;;;;;;2.45;1.38;;;;;;;;;;5081576;28;20482;-74
2022/04/27 12:49:27;;;;;;;1.55;1.10;;;;;;;;;;5082013;28;21207;-74
2022/04/27 12:51:53;;;;;;;1.15;1.00;;;;;;;;;;5081957;28;20020;-71
2022/04/27 12:54:18;;;;;;;1.83;1.27;;;;;;;;;;5082073;28;20340;-74
2022/04/27 12:56:44;;;;;;;2.13;1.23;;;;;;;;;;5081277;28;20024;-71
2022/04/27 12:59:13;;;;;;;1.67;1.27;;;;;;;;;;5081405;28;20059;-76
2022/04/27 13:01:39;;;;;;;2.60;1.35;;;;;;;;;;5082060;28;20078;-79
2022/04/27 13:04:04;;;;;;;3.42;1.48;;;;;;;;;;5081159;28;20028;-71
2022/04/27 13:06:30;;;;;;;2.72;1.05;;;;;;;;;;5082295;28;20032;-76
2022/04/27 13:08:57;;;;;;;2.28;1.20;;;;;;;;;;5081888;28;20711;-71
2022/04/27 13:14:06;;;;;;;1.90;1.38;;;;;;;;;;5081536;28;20087;-74
2022/04/27 13:16:32;;;;;;;4.63;1.42;;;;;;;;;;5081862;28;20376;-73
2022/04/27 13:18:57;;;;;;;4.20;1.10;;;;;;;;;;5081926;28;20099;-71
2022/04/27 13:21:22;;;;;;;1.33;1.15;;;;;;;;;;5080426;28;20020;-76
2022/04/27 13:23:49;;;;;;;4.72;1.23;;;;;;;;;;5081605;28;20437;-77
2022/04/27 13:26:14;;;;;;;3.13;1.00;;;;;;;;;;5075453;28;20035;-78
2022/04/27 13:28:40;;;;;;;3.05;1.35;;;;;;;;;;5072164;28;20099;-75
2022/04/27 13:31:08;;;;;;;1.83;1.15;;;;;;;;;;5081120;28;20016;-74
2022/04/27 13:33:34;;;;;;;3.80;1.15;;;;;;;;;;5079679;28;20024;-73
2022/04/27 13:35:59;;;;;;;1.10;1.00;;;;;;;;;;5079322;28;20028;-73
2022/04/27 13:38:26;;;;;;;1.42;1.17;;;;;;;;;;5071758;28;20099;-78
2022/04/27 13:40:51;;;;;;;1.48;0.90;;;;;;;;;;5066784;28;20034;-77
2022/04/27 13:43:17;;;;;;;1.65;1.00;;;;;;;;;;5081018;28;20107;-77
2022/04/27 13:45:44;;;;;;;1.23;0.90;;;;;;;;;;5081158;28;20043;-76
2022/04/27 13:48:09;;;;;;;2.28;1.10;;;;;;;;;;5081393;28;20024;-77
2022/04/27 13:50:34;;;;;;;4.20;1.30;;;;;;;;;;5080832;28;20032;-78
2022/04/27 13:53:00;;;;;;;3.55;1.10;;;;;;;;;;5079287;28;20089;-76
2022/04/27 13:55:25;;;;;;;3.42;1.30;;;;;;;;;;5065237;28;20321;-77
2022/04/27 13:57:52;;;;;;;5.07;1.10;;;;;;;;;;5066270;28;20024;-77
2022/04/27 14:00:17;;;;;;;1.33;1.20;;;;;;;;;;5066925;28;20046;-76
2022/04/27 14:02:42;;;;;;;2.00;0.90;;;;;;;;;;5065823;28;20039;-78
2022/04/27 14:05:09;;;;;;;3.20;1.95;;;;;;;;;;5081302;28;20173;-77
2022/04/27 14:07:36;;;;;;;3.72;1.38;;;;;;;;;;5084233;28;20023;-77
2022/04/27 14:10:03;;;;;;;5.55;3.88;;;;;;;;;;5067538;28;20156;-77
2022/04/27 14:15:13;;;;;;;11.73;6.68;;;;;;;;;;5084924;28;20145;-76
2022/04/27 14:20:22;;;;;;;5.97;3.38;;;;;;;;;;5082974;28;20038;-75
2022/04/27 14:22:49;;;;;;;3.83;2.45;;;;;;;;;;5073633;28;20343;-78
2022/04/27 14:25:15;;;;;;;3.75;1.83;;;;;;;;;;5083311;28;20039;-79
2022/04/27 14:27:40;;;;;;;2.40;1.75;;;;;;;;;;5064443;28;20028;-80
2022/04/27 14:30:06;;;;;;;4.68;2.30;;;;;;;;;;5084277;28;20039;-78
2022/04/27 14:32:32;;;;;;;3.03;1.50;;;;;;;;;;5083981;28;20035;-77
2022/04/27 14:34:58;;;;;;;12.52;8.93;;;;;;;;;;5083024;28;20051;-79
2022/04/27 14:37:23;;;;;;;6.10;3.85;;;;;;;;;;5074271;28;20032;-77
2022/04/27 14:39:49;;;;;;;71.40;44.75;;;;;;;;;;5069597;28;20034;-79
2022/04/27 14:42:14;;;;;;;41.50;27.33;;;;;;;;;;5070410;28;20028;-77
2022/04/27 14:44:39;;;;;;;14.38;8.02;;;;;;;;;;5055998;28;20028;-77
2022/04/27 14:47:05;;;;;;;7.18;4.07;;;;;;;;;;5082409;28;20016;-76
2022/04/27 14:49:30;;;;;;;3.13;1.73;;;;;;;;;;5080805;28;20042;-78
2022/04/27 14:51:55;;;;;;;18.85;12.95;;;;;;;;;;5081632;28;20085;-77
2022/04/27 14:54:21;;;;;;;6.20;4.82;;;;;;;;;;5083691;28;20071;-80
2022/04/27 14:56:46;;;;;;;4.18;2.58;;;;;;;;;;5083513;28;20096;-79
2022/04/27 14:59:12;;;;;;;2.83;1.77;;;;;;;;;;5081756;28;20111;-79
2022/04/27 15:01:38;;;;;;;5.55;1.67;;;;;;;;;;5083707;28;20126;-79
2022/04/27 15:04:04;;;;;;;4.13;1.98;;;;;;;;;;5082821;28;20032;-83
2022/04/27 15:06:31;;;;;;;2.25;1.63;;;;;;;;;;5083790;28;20028;-79
2022/04/27 15:08:57;;;;;;;2.53;1.80;;;;;;;;;;5083740;28;20028;-79